createdAt,value
2023-04-20T00:01:48.893Z,97298.35
2023-04-20T00:04:18.268Z,97294.89
2023-04-20T00:06:46.479Z,97296.34
2023-04-20T00:09:15.604Z,97294.86
2023-04-20T00:11:43.941Z,97296.41
2023-04-20T00:14:12.080Z,97293.59
2023-04-20T00:16:42.654Z,97291.81
2023-04-20T00:19:11.162Z,97289.81
2023-04-20T00:21:39.175Z,97290.59
2023-04-20T00:24:07.666Z,97290.75
2023-04-20T00:26:36.570Z,97287.84
2023-04-20T00:29:04.861Z,97287.20
2023-04-20T00:31:33.000Z,97284.14
2023-04-20T00:34:01.076Z,97284.75
2023-04-20T00:36:30.124Z,97282.00
2023-04-20T00:38:59.814Z,97286.45
2023-04-20T00:41:29.070Z,97283.51
2023-04-20T00:43:58.279Z,97284.06
2023-04-20T00:46:26.321Z,97283.22
2023-04-20T00:48:54.612Z,97283.59
2023-04-20T00:51:23.648Z,97279.60
2023-04-20T00:53:51.710Z,97282.52
2023-04-20T00:56:20.004Z,97283.44
2023-04-20T00:58:50.555Z,97286.61
2023-04-20T01:01:18.824Z,97281.88
2023-04-20T01:03:48.076Z,97280.84
2023-04-20T01:06:17.675Z,97284.02
2023-04-20T01:08:50.803Z,97289.05
2023-04-20T01:11:19.668Z,97288.60
2023-04-20T01:13:47.752Z,97286.84
2023-04-20T01:16:16.701Z,97289.27
2023-04-20T01:18:48.344Z,97286.77
2023-04-20T01:21:18.686Z,97286.84
2023-04-20T01:23:47.018Z,97284.83
2023-04-20T01:26:17.509Z,97282.33
2023-04-20T01:28:46.126Z,97285.48
2023-04-20T01:31:17.045Z,97284.36
2023-04-20T01:33:45.345Z,97288.73
2023-04-20T01:36:14.155Z,97291.85
2023-04-20T01:38:42.208Z,97296.00
2023-04-20T01:41:11.095Z,97289.66
2023-04-20T01:43:39.538Z,97289.05
2023-04-20T01:46:07.845Z,97283.66
2023-04-20T01:48:35.846Z,97282.43
2023-04-20T01:51:04.302Z,97282.64
2023-04-20T01:53:32.310Z,97281.64
2023-04-20T01:56:00.711Z,97281.86
2023-04-20T01:58:28.931Z,97280.58
2023-04-20T02:00:57.076Z,97280.35
2023-04-20T02:03:26.560Z,97277.93
2023-04-20T02:05:55.623Z,97275.33
2023-04-20T02:08:23.714Z,97273.44
2023-04-20T02:10:53.747Z,97275.23
2023-04-20T02:13:21.992Z,97273.91
2023-04-20T02:15:50.645Z,97275.82
2023-04-20T02:18:18.724Z,97275.72
2023-04-20T02:20:48.353Z,97274.60
2023-04-20T02:23:16.530Z,97275.55
2023-04-20T02:25:44.642Z,97272.52
2023-04-20T02:28:14.129Z,97271.43
2023-04-20T02:30:43.404Z,97271.29
2023-04-20T02:33:13.207Z,97273.95
2023-04-20T02:35:41.251Z,97277.55
2023-04-20T02:38:11.881Z,97282.05
2023-04-20T02:40:40.586Z,97283.27
2023-04-20T02:43:09.690Z,97281.54
2023-04-20T02:45:38.299Z,97286.92
2023-04-20T02:48:07.481Z,97284.75
2023-04-20T02:50:38.000Z,97283.10
2023-04-20T02:53:16.314Z,97284.54
2023-04-20T02:55:45.862Z,97284.46
2023-04-20T02:58:22.316Z,97284.98
2023-04-20T03:01:08.877Z,97283.88
2023-04-20T03:03:37.550Z,97287.22
2023-04-20T03:06:06.648Z,97288.89
2023-04-20T03:08:35.321Z,97288.48
2023-04-20T03:11:13.365Z,97287.55
2023-04-20T03:13:41.892Z,97284.50
2023-04-20T03:16:09.946Z,97285.48
2023-04-20T03:18:59.678Z,97288.30
2023-04-20T03:21:27.658Z,97289.66
2023-04-20T03:23:55.744Z,97294.25
2023-04-20T03:26:26.981Z,97294.47
2023-04-20T03:29:16.237Z,97297.55
2023-04-20T03:31:45.445Z,97301.54
2023-04-20T03:34:13.770Z,97300.75
2023-04-20T03:36:42.360Z,97301.02
2023-04-20T03:39:10.500Z,97300.02
2023-04-20T03:41:38.542Z,97300.67
2023-04-20T03:44:07.264Z,97302.96
2023-04-20T03:46:36.438Z,97303.75
2023-04-20T03:49:04.482Z,97303.70
2023-04-20T03:51:32.781Z,97304.95
2023-04-20T03:54:01.052Z,97305.95
2023-04-20T03:56:30.086Z,97303.91
2023-04-20T03:58:59.017Z,97305.52
2023-04-20T04:01:29.446Z,97307.48
2023-04-20T04:03:58.686Z,97308.95
2023-04-20T04:06:27.520Z,97306.20
2023-04-20T04:08:55.703Z,97305.86
2023-04-20T04:11:25.588Z,97302.05
2023-04-20T04:13:55.211Z,97305.48
2023-04-20T04:16:26.098Z,97309.86
2023-04-20T04:18:55.404Z,97312.11
2023-04-20T04:21:23.821Z,97312.62
2023-04-20T04:23:57.049Z,97313.95
2023-04-20T04:26:34.486Z,97306.56
2023-04-20T04:29:04.652Z,97311.02
2023-04-20T04:31:35.513Z,97306.48
2023-04-20T04:34:08.198Z,97309.13
2023-04-20T04:36:51.910Z,97305.01
2023-04-20T04:39:24.003Z,97303.54
2023-04-20T04:42:04.265Z,97302.36
2023-04-20T04:44:40.580Z,97301.77
2023-04-20T04:47:09.671Z,97312.41
2023-04-20T04:49:38.186Z,97322.30
2023-04-20T04:52:09.409Z,97322.86
2023-04-20T04:54:37.490Z,97322.14
2023-04-20T04:57:06.196Z,97318.50
2023-04-20T04:59:34.569Z,97313.08
2023-04-20T05:02:02.601Z,97307.17
2023-04-20T05:04:30.789Z,97307.70
2023-04-20T05:07:00.262Z,97313.23
2023-04-20T05:09:33.924Z,97314.48
2023-04-20T05:12:03.279Z,97313.65
2023-04-20T05:14:32.241Z,97316.76
2023-04-20T05:17:01.061Z,97315.27
2023-04-20T05:19:29.919Z,97312.55
2023-04-20T05:21:58.215Z,97315.35
2023-04-20T05:24:26.371Z,97315.63
2023-04-20T05:26:54.524Z,97309.59
2023-04-20T05:29:22.589Z,97310.53
2023-04-20T05:31:50.598Z,97309.16
2023-04-20T05:34:18.909Z,97312.96
2023-04-20T05:36:47.881Z,97316.45
2023-04-20T05:39:16.230Z,97320.27
2023-04-20T05:41:45.135Z,97317.35
2023-04-20T05:44:13.387Z,97316.30
2023-04-20T05:46:43.821Z,97311.05
2023-04-20T05:49:12.108Z,97312.19
2023-04-20T05:51:40.973Z,97315.15
2023-04-20T05:54:09.817Z,97313.70
2023-04-20T05:56:38.069Z,97316.08
2023-04-20T05:59:06.847Z,97316.38
2023-04-20T06:01:37.646Z,97321.59
2023-04-20T06:04:05.955Z,97319.70
2023-04-20T06:06:34.173Z,97321.10
2023-04-20T06:09:02.572Z,97322.27
2023-04-20T06:11:31.398Z,97322.32
2023-04-20T06:14:00.806Z,97316.98
2023-04-20T06:16:29.061Z,97317.50
2023-04-20T06:18:58.485Z,97313.50
2023-04-20T06:21:27.328Z,97313.77
2023-04-20T06:23:55.469Z,97309.82
2023-04-20T06:26:23.606Z,97311.21
2023-04-20T06:28:53.169Z,97308.95
2023-04-20T06:31:21.984Z,97311.10
2023-04-20T06:33:55.948Z,97309.45
2023-04-20T06:36:24.342Z,97301.67
2023-04-20T06:38:52.756Z,97304.73
2023-04-20T06:41:21.066Z,97301.09
2023-04-20T06:43:49.161Z,97298.34
2023-04-20T06:46:17.363Z,97302.38
2023-04-20T06:48:46.489Z,97300.93
2023-04-20T06:51:16.466Z,97300.80
2023-04-20T06:53:44.946Z,97301.70
2023-04-20T06:56:13.622Z,97304.13
2023-04-20T06:58:42.036Z,97301.57
2023-04-20T07:01:13.236Z,97304.82
2023-04-20T07:03:41.502Z,97304.95
2023-04-20T07:06:11.400Z,97304.56
2023-04-20T07:08:42.399Z,97300.98
2023-04-20T07:11:12.589Z,97303.07
2023-04-20T07:13:44.479Z,97303.45
2023-04-20T07:16:17.140Z,97299.84
2023-04-20T07:18:46.617Z,97297.85
2023-04-20T07:21:15.487Z,97300.48
2023-04-20T07:23:45.217Z,97304.21
2023-04-20T07:26:13.489Z,97303.05
2023-04-20T07:28:42.512Z,97297.40
2023-04-20T07:31:10.847Z,97300.52
2023-04-20T07:33:40.082Z,97303.11
2023-04-20T07:36:09.480Z,97303.05
2023-04-20T07:38:37.628Z,97302.23
2023-04-20T07:41:10.674Z,97306.37
2023-04-20T07:43:40.596Z,97302.90
2023-04-20T07:46:08.646Z,97300.54
2023-04-20T07:48:37.525Z,97301.30
2023-04-20T07:51:06.155Z,97301.64
2023-04-20T07:53:35.651Z,97298.48
2023-04-20T07:56:07.122Z,97299.00
2023-04-20T07:58:39.241Z,97299.79
2023-04-20T08:01:07.695Z,97294.70
2023-04-20T08:03:36.465Z,97293.74
2023-04-20T08:06:06.670Z,97292.92
2023-04-20T08:08:35.492Z,97290.89
2023-04-20T08:11:03.569Z,97292.36
2023-04-20T08:13:32.443Z,97285.84
2023-04-20T08:16:00.712Z,97283.71
2023-04-20T08:18:30.762Z,97286.63
2023-04-20T08:21:01.707Z,97286.02
2023-04-20T08:23:31.549Z,97281.95
2023-04-20T08:26:00.461Z,97285.21
2023-04-20T08:28:33.866Z,97281.69
2023-04-20T08:31:03.145Z,97281.09
2023-04-20T08:33:34.892Z,97279.18
2023-04-20T08:36:03.066Z,97280.56
2023-04-20T08:38:34.245Z,97279.95
2023-04-20T08:41:03.639Z,97281.37
2023-04-20T08:43:32.958Z,97276.38
2023-04-20T08:46:05.230Z,97272.73
2023-04-20T08:48:45.475Z,97269.26
2023-04-20T08:51:15.653Z,97265.66
2023-04-20T08:53:44.216Z,97263.50
2023-04-20T08:56:12.504Z,97263.96
2023-04-20T08:58:42.507Z,97259.94
2023-04-20T09:01:17.615Z,97258.66
2023-04-20T09:03:49.398Z,97260.69
2023-04-20T09:06:21.540Z,97261.00
2023-04-20T09:08:55.067Z,97259.95
2023-04-20T09:11:25.596Z,97257.39
2023-04-20T09:14:11.736Z,97258.07
2023-04-20T09:17:05.202Z,97260.05
2023-04-20T09:19:34.869Z,97256.73
2023-04-20T09:22:04.061Z,97259.55
2023-04-20T09:24:35.010Z,97258.44
2023-04-20T09:27:17.022Z,97252.40
2023-04-20T09:29:57.740Z,97248.24
2023-04-20T09:32:28.196Z,97244.61
2023-04-20T09:34:57.587Z,97244.40
2023-04-20T09:37:27.078Z,97243.52
2023-04-20T09:40:00.420Z,97244.66
2023-04-20T09:42:36.823Z,97240.46
2023-04-20T09:45:05.872Z,97244.55
2023-04-20T09:47:37.947Z,97247.84
2023-04-20T09:50:24.663Z,97244.52
2023-04-20T09:53:11.125Z,97241.76
2023-04-20T09:55:41.135Z,97242.88
2023-04-20T09:58:09.532Z,97246.08
2023-04-20T10:00:38.204Z,97241.02
2023-04-20T10:03:09.214Z,97234.88
2023-04-20T10:05:40.485Z,97232.58
2023-04-20T10:08:08.921Z,97228.83
2023-04-20T10:10:46.377Z,97230.84
2023-04-20T10:13:15.872Z,97230.62
2023-04-20T10:15:46.208Z,97233.28
2023-04-20T10:18:24.381Z,97232.82
2023-04-20T10:21:06.476Z,97229.55
2023-04-20T10:23:34.916Z,97227.94
2023-04-20T10:26:04.019Z,97223.38
2023-04-20T10:28:44.440Z,97222.55
2023-04-20T10:31:17.085Z,97223.80
2023-04-20T10:33:50.361Z,97224.63
2023-04-20T10:36:32.470Z,97226.11
2023-04-20T10:39:05.970Z,97227.25
2023-04-20T10:41:34.455Z,97223.89
2023-04-20T10:44:09.688Z,97228.31
2023-04-20T10:46:38.697Z,97229.38
2023-04-20T10:49:53.182Z,97225.65
2023-04-20T10:52:33.424Z,97229.33
2023-04-20T10:55:01.821Z,97226.78
2023-04-20T10:57:30.396Z,97226.68
2023-04-20T11:00:01.640Z,97230.52
2023-04-20T11:02:30.283Z,97227.27
2023-04-20T11:05:01.059Z,97223.83
2023-04-20T11:07:29.615Z,97219.20
2023-04-20T11:09:58.048Z,97219.92
2023-04-20T11:12:46.552Z,97221.65
2023-04-20T11:15:16.472Z,97220.95
2023-04-20T11:17:45.774Z,97224.96
2023-04-20T11:20:17.864Z,97224.45
2023-04-20T11:22:59.531Z,97222.60
2023-04-20T11:25:28.174Z,97220.91
2023-04-20T11:28:11.208Z,97218.64
2023-04-20T11:30:42.118Z,97220.90
2023-04-20T11:33:11.667Z,97219.09
2023-04-20T11:35:42.281Z,97219.03
2023-04-20T11:38:11.075Z,97217.69
2023-04-20T11:40:39.360Z,97211.66
2023-04-20T11:43:07.570Z,97208.96
2023-04-20T11:45:37.969Z,97209.06
2023-04-20T11:48:06.516Z,97209.77
2023-04-20T11:50:34.751Z,97209.44
2023-04-20T11:53:03.454Z,97210.89
2023-04-20T11:55:32.096Z,97210.05
2023-04-20T11:58:01.336Z,97210.86
2023-04-20T12:00:36.514Z,97214.21
2023-04-20T12:03:05.053Z,97214.36
2023-04-20T12:05:34.198Z,97219.41
2023-04-20T12:08:03.745Z,97216.48
2023-04-20T12:10:31.860Z,97215.39
2023-04-20T12:13:01.220Z,97214.13
2023-04-20T12:15:29.421Z,97212.48
2023-04-20T12:17:58.270Z,97209.04
2023-04-20T12:20:26.624Z,97211.27
2023-04-20T12:22:55.972Z,97211.89
2023-04-20T12:25:25.762Z,97211.17
2023-04-20T12:27:54.009Z,97210.91
2023-04-20T12:30:22.333Z,97209.83
2023-04-20T12:32:50.799Z,97207.55
2023-04-20T12:35:20.850Z,97207.45
2023-04-20T12:37:49.090Z,97204.56
2023-04-20T12:40:30.539Z,97207.58
2023-04-20T12:43:00.508Z,97207.58
2023-04-20T12:45:29.998Z,97207.98
2023-04-20T12:48:00.333Z,97204.42
2023-04-20T12:50:28.887Z,97201.69
2023-04-20T12:52:59.033Z,97199.17
2023-04-20T12:55:27.510Z,97198.60
2023-04-20T12:57:55.771Z,97203.52
2023-04-20T13:00:24.361Z,97202.69
2023-04-20T13:02:53.037Z,97201.80
2023-04-20T13:05:21.755Z,97194.92
2023-04-20T13:07:50.060Z,97198.75
2023-04-20T13:10:18.783Z,97192.47
2023-04-20T13:12:53.038Z,97194.17
2023-04-20T13:15:35.684Z,97195.36
2023-04-20T13:18:07.592Z,97191.84
2023-04-20T13:20:35.934Z,97195.75
2023-04-20T13:23:04.605Z,97192.42
2023-04-20T13:25:33.724Z,97188.68
2023-04-20T13:28:03.570Z,97190.17
2023-04-20T13:30:32.545Z,97187.39
2023-04-20T13:33:01.369Z,97187.03
2023-04-20T13:35:29.817Z,97191.35
2023-04-20T13:37:58.032Z,97193.31
2023-04-20T13:40:26.516Z,97191.34
2023-04-20T13:42:58.015Z,97189.21
2023-04-20T13:45:37.108Z,97185.88
2023-04-20T13:48:05.884Z,97188.48
2023-04-20T13:50:34.081Z,97189.02
2023-04-20T13:53:03.960Z,97190.30
2023-04-20T13:55:32.169Z,97193.31
2023-04-20T13:58:00.228Z,97189.52
2023-04-20T14:00:31.686Z,97190.67
2023-04-20T14:03:02.282Z,97187.95
2023-04-20T14:05:30.900Z,97189.53
2023-04-20T14:08:01.756Z,97189.77
2023-04-20T14:10:30.082Z,97190.08
2023-04-20T14:13:00.556Z,97194.46
2023-04-20T14:15:30.107Z,97196.06
2023-04-20T14:18:00.522Z,97193.06
2023-04-20T14:20:28.969Z,97185.69
2023-04-20T14:22:57.015Z,97180.11
2023-04-20T14:25:25.130Z,97186.50
2023-04-20T14:27:54.331Z,97191.66
2023-04-20T14:30:22.818Z,97187.47
2023-04-20T14:32:56.330Z,97189.34
2023-04-20T14:35:26.622Z,97187.37
2023-04-20T14:37:55.184Z,97189.94
2023-04-20T14:40:23.485Z,97191.79
2023-04-20T14:42:51.639Z,97191.36
2023-04-20T14:45:20.024Z,97198.89
2023-04-20T14:47:54.460Z,97204.52
2023-04-20T14:50:29.373Z,97193.76
2023-04-20T14:52:57.721Z,97200.89
2023-04-20T14:55:26.270Z,97202.70
2023-04-20T14:57:57.095Z,97198.86
2023-04-20T15:00:28.341Z,97197.34
2023-04-20T15:02:57.638Z,97194.42
2023-04-20T15:05:28.790Z,97194.30
2023-04-20T15:08:01.406Z,97191.41
2023-04-20T15:10:29.791Z,97194.62
2023-04-20T15:12:57.875Z,97199.01
2023-04-20T15:15:34.485Z,97199.90
2023-04-20T15:18:09.780Z,97196.17
2023-04-20T15:20:38.386Z,97203.05
2023-04-20T15:23:07.719Z,97201.20
2023-04-20T15:25:38.853Z,97206.44
2023-04-20T15:28:19.391Z,97202.52
2023-04-20T15:30:55.473Z,97202.69
2023-04-20T15:33:28.848Z,97201.46
2023-04-20T15:35:57.227Z,97202.52
2023-04-20T15:38:25.730Z,97202.52
2023-04-20T15:40:54.269Z,97196.31
2023-04-20T15:43:22.322Z,97190.13
2023-04-20T15:45:51.374Z,97194.46
2023-04-20T15:48:19.505Z,97193.71
2023-04-20T15:50:52.354Z,97194.02
2023-04-20T15:53:22.315Z,97196.14
2023-04-20T15:55:51.514Z,97200.43
2023-04-20T15:58:20.526Z,97198.14
2023-04-20T16:00:49.460Z,97199.70
2023-04-20T16:03:18.261Z,97198.66
2023-04-20T16:05:47.009Z,97200.00
2023-04-20T16:08:16.084Z,97197.60
2023-04-20T16:10:46.960Z,97199.07
2023-04-20T16:13:17.930Z,97199.08
2023-04-20T16:15:46.276Z,97197.39
2023-04-20T16:18:15.097Z,97200.13
2023-04-20T16:20:43.428Z,97197.83
2023-04-20T16:23:13.224Z,97198.40
2023-04-20T16:25:41.395Z,97200.71
2023-04-20T16:28:09.542Z,97202.20
2023-04-20T16:30:37.914Z,97202.23
2023-04-20T16:33:06.321Z,97202.17
2023-04-20T16:35:35.215Z,97204.48
2023-04-20T16:38:03.284Z,97204.90
2023-04-20T16:40:31.625Z,97202.76
2023-04-20T16:43:01.948Z,97204.00
2023-04-20T16:45:30.400Z,97207.85
2023-04-20T16:47:59.228Z,97208.84
2023-04-20T16:50:31.086Z,97211.37
2023-04-20T16:53:01.889Z,97212.31
2023-04-20T16:55:32.113Z,97207.77
2023-04-20T16:58:00.639Z,97209.95
2023-04-20T17:00:32.623Z,97210.44
2023-04-20T17:03:03.866Z,97217.80
2023-04-20T17:05:32.153Z,97218.09
2023-04-20T17:08:00.322Z,97217.41
2023-04-20T17:10:33.858Z,97221.19
2023-04-20T17:13:04.456Z,97222.05
2023-04-20T17:15:32.548Z,97220.74
2023-04-20T17:18:00.627Z,97223.05
2023-04-20T17:20:28.665Z,97225.10
2023-04-20T17:22:56.687Z,97225.46
2023-04-20T17:25:25.762Z,97230.08
2023-04-20T17:27:54.882Z,97229.55
2023-04-20T17:30:23.333Z,97232.56
2023-04-20T17:32:53.866Z,97233.20
2023-04-20T17:35:23.038Z,97235.75
2023-04-20T17:37:51.839Z,97237.09
2023-04-20T17:40:20.621Z,97239.70
2023-04-20T17:42:49.085Z,97244.73
2023-04-20T17:45:17.755Z,97246.93
2023-04-20T17:47:46.484Z,97247.73
2023-04-20T17:50:16.830Z,97250.02
2023-04-20T17:52:46.823Z,97249.14
2023-04-20T17:55:14.907Z,97252.00
2023-04-20T17:57:42.968Z,97256.77
2023-04-20T18:00:12.833Z,97260.42
2023-04-20T18:02:41.057Z,97261.23
2023-04-20T18:05:09.674Z,97260.33
2023-04-20T18:07:39.548Z,97260.95
2023-04-20T18:10:12.912Z,97261.08
2023-04-20T18:12:42.813Z,97262.30
2023-04-20T18:15:12.985Z,97258.64
2023-04-20T18:17:42.638Z,97257.28
2023-04-20T18:20:14.360Z,97262.73
2023-04-20T18:22:42.766Z,97264.79
2023-04-20T18:25:10.843Z,97259.85
2023-04-20T18:27:42.889Z,97262.25
2023-04-20T18:30:14.032Z,97265.37
2023-04-20T18:32:42.365Z,97272.34
2023-04-20T18:35:11.826Z,97275.84
2023-04-20T18:37:40.729Z,97279.09
2023-04-20T18:40:10.548Z,97286.05
2023-04-20T18:42:39.536Z,97290.67
2023-04-20T18:45:08.432Z,97292.09
2023-04-20T18:47:36.604Z,97294.35
2023-04-20T18:50:05.805Z,97292.86
2023-04-20T18:52:38.334Z,97293.91
2023-04-20T18:55:07.761Z,97292.67
2023-04-20T18:57:35.974Z,97291.98
2023-04-20T19:00:08.282Z,97295.02
2023-04-20T19:02:36.567Z,97294.12
2023-04-20T19:05:08.795Z,97297.20
2023-04-20T19:07:40.100Z,97298.67
2023-04-20T19:10:12.904Z,97300.67
2023-04-20T19:12:43.317Z,97302.55
2023-04-20T19:15:15.354Z,97303.38
2023-04-20T19:17:47.248Z,97300.98
2023-04-20T19:20:18.453Z,97303.73
2023-04-20T19:22:47.228Z,97303.41
2023-04-20T19:25:15.357Z,97305.70
2023-04-20T19:27:44.532Z,97303.73
2023-04-20T19:30:13.197Z,97302.45
2023-04-20T19:32:41.511Z,97302.85
2023-04-20T19:35:14.196Z,97304.68
2023-04-20T19:37:43.278Z,97303.86
2023-04-20T19:40:14.097Z,97301.98
2023-04-20T19:42:42.526Z,97303.12
2023-04-20T19:45:11.579Z,97309.20
2023-04-20T19:47:40.372Z,97311.77
2023-04-20T19:50:10.508Z,97314.88
2023-04-20T19:52:38.692Z,97316.59
2023-04-20T19:55:07.278Z,97313.41
2023-04-20T19:57:35.382Z,97309.74
2023-04-20T20:00:05.365Z,97312.70
2023-04-20T20:02:45.275Z,97308.56
2023-04-20T20:05:13.729Z,97309.04
2023-04-20T20:07:41.669Z,97311.12
2023-04-20T20:10:10.159Z,97311.36
2023-04-20T20:12:38.499Z,97311.33
2023-04-20T20:15:06.824Z,97310.08
2023-04-20T20:17:34.955Z,97308.14
2023-04-20T20:20:06.455Z,97307.42
2023-04-20T20:22:34.548Z,97310.60
2023-04-20T20:25:03.193Z,97311.73
2023-04-20T20:27:32.237Z,97308.02
2023-04-20T20:30:00.268Z,97310.23
2023-04-20T20:32:28.567Z,97310.77
2023-04-20T20:34:58.046Z,97311.23
2023-04-20T20:37:26.257Z,97309.39
2023-04-20T20:39:54.989Z,97308.98
2023-04-20T20:42:25.819Z,97307.45
2023-04-20T20:44:53.890Z,97307.43
2023-04-20T20:47:22.167Z,97306.20
2023-04-20T20:49:50.812Z,97304.39
2023-04-20T20:52:18.949Z,97304.46
2023-04-20T20:54:48.282Z,97302.05
2023-04-20T20:57:16.765Z,97304.30
2023-04-20T20:59:44.945Z,97307.70
2023-04-20T21:02:13.991Z,97309.61
2023-04-20T21:04:42.177Z,97309.56
2023-04-20T21:07:10.413Z,97316.77
2023-04-20T21:09:38.984Z,97314.80
2023-04-20T21:12:08.668Z,97321.23
2023-04-20T21:14:37.442Z,97322.39
2023-04-20T21:17:05.586Z,97326.20
2023-04-20T21:19:33.728Z,97326.45
2023-04-20T21:22:01.802Z,97329.44
2023-04-20T21:24:29.929Z,97329.42
2023-04-20T21:26:58.660Z,97331.67
2023-04-20T21:29:26.719Z,97333.31
2023-04-20T21:31:54.840Z,97333.93
2023-04-20T21:34:22.815Z,97333.52
2023-04-20T21:36:50.837Z,97335.61
2023-04-20T21:39:19.173Z,97334.02
2023-04-20T21:41:47.459Z,97331.30
2023-04-20T21:44:15.675Z,97328.04
2023-04-20T21:46:45.751Z,97327.08
2023-04-20T21:49:13.792Z,97327.35
2023-04-20T21:51:42.676Z,97329.34
2023-04-20T21:54:10.664Z,97331.04
2023-04-20T21:56:38.688Z,97329.98
2023-04-20T21:59:07.750Z,97328.08
2023-04-20T22:01:35.937Z,97328.10
2023-04-20T22:04:04.873Z,97329.48
2023-04-20T22:06:33.224Z,97331.43
2023-04-20T22:09:01.838Z,97333.66
2023-04-20T22:11:30.666Z,97330.21
2023-04-20T22:13:58.908Z,97328.36
2023-04-20T22:16:30.858Z,97328.02
2023-04-20T22:18:58.936Z,97328.33
2023-04-20T22:21:27.339Z,97328.77
2023-04-20T22:23:55.461Z,97330.12
2023-04-20T22:26:24.486Z,97327.81
2023-04-20T22:28:52.572Z,97327.88
2023-04-20T22:31:20.651Z,97329.38
2023-04-20T22:33:48.704Z,97330.52
2023-04-20T22:36:17.131Z,97329.35
2023-04-20T22:38:45.143Z,97326.09
2023-04-20T22:41:15.299Z,97327.16
2023-04-20T22:43:44.805Z,97327.80
2023-04-20T22:46:13.428Z,97321.25
2023-04-20T22:48:41.760Z,97324.75
2023-04-20T22:51:09.825Z,97326.95
2023-04-20T22:53:38.103Z,97324.34
2023-04-20T22:56:07.953Z,97326.00
2023-04-20T22:58:37.482Z,97325.43
2023-04-20T23:01:05.692Z,97323.18
2023-04-20T23:03:34.427Z,97328.14
2023-04-20T23:06:02.792Z,97330.29
2023-04-20T23:08:30.843Z,97333.68
2023-04-20T23:10:58.969Z,97326.30
2023-04-20T23:13:27.470Z,97326.41
2023-04-20T23:15:55.578Z,97329.97
2023-04-20T23:18:24.646Z,97329.23
2023-04-20T23:20:52.769Z,97330.14
2023-04-20T23:23:20.918Z,97329.61
2023-04-20T23:25:48.983Z,97331.05
2023-04-20T23:28:17.131Z,97333.83
2023-04-20T23:30:45.457Z,97335.60
2023-04-20T23:33:13.507Z,97332.89
2023-04-20T23:35:41.572Z,97335.30
2023-04-20T23:38:10.359Z,97333.59
2023-04-20T23:40:41.120Z,97332.36
2023-04-20T23:43:09.297Z,97334.09
2023-04-20T23:45:37.415Z,97334.77
2023-04-20T23:48:05.992Z,97331.69
2023-04-20T23:50:37.013Z,97331.64
2023-04-20T23:53:06.411Z,97330.55
2023-04-20T23:55:34.385Z,97328.64
2023-04-20T23:58:02.387Z,97329.96
